createdAt,value
2022-09-02T00:00:09.661Z,1013.39
2022-09-02T00:01:09.714Z,1013.40
2022-09-02T00:02:09.709Z,1013.39
2022-09-02T00:03:09.749Z,1013.37
2022-09-02T00:04:09.641Z,1013.35
2022-09-02T00:05:09.599Z,1013.35
2022-09-02T00:06:09.601Z,1013.34
2022-09-02T00:07:09.616Z,1013.33
2022-09-02T00:08:09.597Z,1013.32
2022-09-02T00:09:09.742Z,1013.32
2022-09-02T00:10:09.605Z,1013.31
2022-09-02T00:11:09.600Z,1013.31
2022-09-02T00:12:09.574Z,1013.30
2022-09-02T00:13:09.615Z,1013.29
2022-09-02T00:14:09.641Z,1013.27
2022-09-02T00:15:09.784Z,1013.27
2022-09-02T00:16:09.525Z,1013.26
2022-09-02T00:17:09.485Z,1013.26
2022-09-02T00:18:15.260Z,1013.25
2022-09-02T00:19:09.519Z,1013.24
2022-09-02T00:20:09.484Z,1013.22
2022-09-02T00:21:09.457Z,1013.21
2022-09-02T00:22:09.438Z,1013.21
2022-09-02T00:23:09.486Z,1013.20
2022-09-02T00:24:09.488Z,1013.19
2022-09-02T00:25:09.345Z,1013.18
2022-09-02T00:26:09.454Z,1013.17
2022-09-02T00:27:09.465Z,1013.17
2022-09-02T00:28:09.381Z,1013.16
2022-09-02T00:29:09.401Z,1013.16
2022-09-02T00:30:09.354Z,1013.15
2022-09-02T00:31:09.368Z,1013.14
2022-09-02T00:32:09.410Z,1013.14
2022-09-02T00:33:09.310Z,1013.13
2022-09-02T00:34:09.507Z,1013.11
2022-09-02T00:35:09.324Z,1013.10
2022-09-02T00:36:09.466Z,1013.09
2022-09-02T00:37:09.430Z,1013.08
2022-09-02T00:38:09.256Z,1013.07
2022-09-02T00:39:09.387Z,1013.07
2022-09-02T00:40:09.296Z,1013.06
2022-09-02T00:41:09.238Z,1013.06
2022-09-02T00:42:09.324Z,1013.06
2022-09-02T00:43:09.316Z,1013.06
2022-09-02T00:44:09.274Z,1013.05
2022-09-02T00:45:09.327Z,1013.06
2022-09-02T00:46:09.272Z,1013.05
2022-09-02T00:47:09.276Z,1013.05
2022-09-02T00:48:09.116Z,1013.05
2022-09-02T00:49:09.231Z,1013.06
2022-09-02T00:50:09.246Z,1013.06
2022-09-02T00:51:09.124Z,1013.07
2022-09-02T00:52:09.077Z,1013.06
2022-09-02T00:53:09.078Z,1013.07
2022-09-02T00:54:09.143Z,1013.06
2022-09-02T00:55:09.151Z,1013.07
2022-09-02T00:56:09.073Z,1013.06
2022-09-02T00:57:09.256Z,1013.05
2022-09-02T00:58:09.295Z,1013.04
2022-09-02T00:59:09.140Z,1013.02
2022-09-02T01:00:09.048Z,1013.02
2022-09-02T01:01:09.109Z,1013.01
2022-09-02T01:02:09.124Z,1013.00
2022-09-02T01:03:08.992Z,1013.01
2022-09-02T01:04:08.978Z,1013.01
2022-09-02T01:05:08.987Z,1013.01
2022-09-02T01:06:08.924Z,1013.00
2022-09-02T01:07:08.980Z,1013.02
2022-09-02T01:08:08.946Z,1013.03
2022-09-02T01:09:09.042Z,1013.02
2022-09-02T01:10:08.900Z,1013.02
2022-09-02T01:11:08.878Z,1013.01
2022-09-02T01:12:08.946Z,1013.01
2022-09-02T01:13:08.874Z,1013.01
2022-09-02T01:14:08.878Z,1013.01
2022-09-02T01:15:08.921Z,1013.01
2022-09-02T01:16:08.910Z,1013.01
2022-09-02T01:17:08.814Z,1013.01
2022-09-02T01:18:08.837Z,1013.01
2022-09-02T01:19:08.761Z,1013.01
2022-09-02T01:20:08.789Z,1013.01
2022-09-02T01:21:08.774Z,1013.01
2022-09-02T01:22:08.795Z,1013.01
2022-09-02T01:23:08.775Z,1013.02
2022-09-02T01:24:08.765Z,1013.01
2022-09-02T01:25:08.741Z,1013.01
2022-09-02T01:26:08.715Z,1013.00
2022-09-02T01:27:08.736Z,1013.00
2022-09-02T01:28:08.685Z,1013.01
2022-09-02T01:29:08.713Z,1013.01
2022-09-02T01:30:08.747Z,1013.01
2022-09-02T01:31:08.709Z,1013.02
2022-09-02T01:32:08.750Z,1013.02
2022-09-02T01:33:08.639Z,1013.00
2022-09-02T01:34:08.739Z,1012.99
2022-09-02T01:35:08.664Z,1012.98
2022-09-02T01:36:08.646Z,1012.98
2022-09-02T01:37:08.624Z,1012.95
2022-09-02T01:38:08.644Z,1012.94
2022-09-02T01:39:08.652Z,1012.93
2022-09-02T01:40:08.621Z,1012.93
2022-09-02T01:41:08.566Z,1012.92
2022-09-02T01:42:08.553Z,1012.91
2022-09-02T01:43:08.574Z,1012.91
2022-09-02T01:44:08.554Z,1012.90
2022-09-02T01:45:08.555Z,1012.90
2022-09-02T01:46:08.559Z,1012.90
2022-09-02T01:47:08.501Z,1012.89
2022-09-02T01:48:08.456Z,1012.87
2022-09-02T01:49:08.523Z,1012.87
2022-09-02T01:50:08.480Z,1012.87
2022-09-02T01:51:08.493Z,1012.86
2022-09-02T01:52:08.497Z,1012.86
2022-09-02T01:53:08.449Z,1012.86
2022-09-02T01:54:08.475Z,1012.86
2022-09-02T01:55:08.432Z,1012.85
2022-09-02T01:56:08.465Z,1012.83
2022-09-02T01:57:08.485Z,1012.82
2022-09-02T01:58:08.431Z,1012.80
2022-09-02T01:59:08.370Z,1012.80
2022-09-02T02:00:08.402Z,1012.79
2022-09-02T02:01:08.505Z,1012.79
2022-09-02T02:02:08.560Z,1012.78
2022-09-02T02:03:08.368Z,1012.76
2022-09-02T02:04:12.673Z,1012.76
2022-09-02T02:05:08.450Z,1012.75
2022-09-02T02:06:08.321Z,1012.75
2022-09-02T02:07:08.304Z,1012.73
2022-09-02T02:08:08.317Z,1012.73
2022-09-02T02:09:08.259Z,1012.74
2022-09-02T02:10:08.240Z,1012.75
2022-09-02T02:11:08.276Z,1012.74
2022-09-02T02:12:08.241Z,1012.73
2022-09-02T02:13:08.242Z,1012.73
2022-09-02T02:14:08.217Z,1012.74
2022-09-02T02:15:08.189Z,1012.74
2022-09-02T02:16:08.267Z,1012.74
2022-09-02T02:17:08.242Z,1012.74
2022-09-02T02:18:08.190Z,1012.75
2022-09-02T02:19:08.170Z,1012.74
2022-09-02T02:20:08.254Z,1012.75
2022-09-02T02:21:08.203Z,1012.73
2022-09-02T02:22:08.184Z,1012.73
2022-09-02T02:23:08.182Z,1012.72
2022-09-02T02:24:08.087Z,1012.71
2022-09-02T02:25:08.194Z,1012.69
2022-09-02T02:26:08.144Z,1012.69
2022-09-02T02:27:08.137Z,1012.68
2022-09-02T02:28:08.103Z,1012.67
2022-09-02T02:29:08.075Z,1012.68
2022-09-02T02:30:08.077Z,1012.68
2022-09-02T02:31:08.076Z,1012.67
2022-09-02T02:32:08.063Z,1012.67
2022-09-02T02:33:08.087Z,1012.66
2022-09-02T02:34:08.057Z,1012.66
2022-09-02T02:37:47.947Z,1012.67
2022-09-02T02:38:48.895Z,1012.67
2022-09-02T02:39:48.535Z,1012.67
2022-09-02T02:40:48.534Z,1012.66
2022-09-02T02:41:48.499Z,1012.66
2022-09-02T02:42:48.558Z,1012.66
2022-09-02T02:43:48.484Z,1012.66
2022-09-02T02:44:48.490Z,1012.65
2022-09-02T02:45:48.482Z,1012.65
2022-09-02T02:46:48.465Z,1012.65
2022-09-02T02:47:48.667Z,1012.65
2022-09-02T02:48:48.481Z,1012.65
2022-09-02T02:49:48.471Z,1012.64
2022-09-02T02:50:48.424Z,1012.64
2022-09-02T02:51:48.434Z,1012.63
2022-09-02T02:52:48.362Z,1012.63
2022-09-02T02:53:48.405Z,1012.62
2022-09-02T02:54:48.416Z,1012.63
2022-09-02T02:55:49.991Z,1012.63
2022-09-02T02:56:48.372Z,1012.64
2022-09-02T02:57:48.368Z,1012.65
2022-09-02T02:58:48.312Z,1012.65
2022-09-02T02:59:48.319Z,1012.65
2022-09-02T03:00:48.297Z,1012.64
2022-09-02T03:01:48.361Z,1012.65
2022-09-02T03:02:48.355Z,1012.65
2022-09-02T03:03:48.297Z,1012.64
2022-09-02T03:04:48.289Z,1012.64
2022-09-02T03:05:48.287Z,1012.63
2022-09-02T03:06:48.256Z,1012.63
2022-09-02T03:07:48.252Z,1012.63
2022-09-02T03:08:48.297Z,1012.62
2022-09-02T03:09:48.348Z,1012.62
2022-09-02T03:10:48.259Z,1012.60
2022-09-02T03:11:48.187Z,1012.59
2022-09-02T03:12:48.196Z,1012.59
2022-09-02T03:13:48.213Z,1012.58
2022-09-02T03:14:48.141Z,1012.58
2022-09-02T03:15:48.217Z,1012.58
2022-09-02T03:16:48.177Z,1012.59
2022-09-02T03:17:48.174Z,1012.59
2022-09-02T03:18:48.197Z,1012.58
2022-09-02T03:19:48.156Z,1012.59
2022-09-02T03:20:48.113Z,1012.60
2022-09-02T03:21:48.114Z,1012.59
2022-09-02T03:22:48.097Z,1012.58
2022-09-02T03:23:48.124Z,1012.57
2022-09-02T03:24:48.065Z,1012.56
2022-09-02T03:25:48.058Z,1012.56
2022-09-02T03:26:48.091Z,1012.56
2022-09-02T03:27:48.025Z,1012.56
2022-09-02T03:28:48.026Z,1012.56
2022-09-02T03:29:48.019Z,1012.55
2022-09-02T03:30:48.071Z,1012.55
2022-09-02T03:31:48.036Z,1012.54
2022-09-02T03:32:47.969Z,1012.54
2022-09-02T03:33:47.983Z,1012.52
2022-09-02T03:34:47.942Z,1012.52
2022-09-02T03:35:47.906Z,1012.52
2022-09-02T03:36:47.957Z,1012.51
2022-09-02T03:37:47.919Z,1012.51
2022-09-02T03:38:47.923Z,1012.50
2022-09-02T03:39:47.938Z,1012.50
2022-09-02T03:40:47.973Z,1012.49
2022-09-02T03:41:47.870Z,1012.48
2022-09-02T03:42:47.871Z,1012.47
2022-09-02T03:43:47.895Z,1012.47
2022-09-02T03:44:47.899Z,1012.47
2022-09-02T03:45:47.868Z,1012.46
2022-09-02T03:46:47.878Z,1012.46
2022-09-02T03:47:47.776Z,1012.45
2022-09-02T03:48:47.811Z,1012.44
2022-09-02T03:49:47.822Z,1012.44
2022-09-02T03:50:47.831Z,1012.43
2022-09-02T03:51:47.808Z,1012.44
2022-09-02T03:52:47.759Z,1012.42
2022-09-02T03:53:47.782Z,1012.42
2022-09-02T03:54:47.734Z,1012.42
2022-09-02T03:55:47.711Z,1012.42
2022-09-02T03:56:47.740Z,1012.42
2022-09-02T03:57:47.710Z,1012.41
2022-09-02T03:58:47.723Z,1012.40
2022-09-02T03:59:47.800Z,1012.40
2022-09-02T04:00:47.660Z,1012.39
2022-09-02T04:01:47.734Z,1012.40
2022-09-02T04:02:47.723Z,1012.40
2022-09-02T04:03:47.657Z,1012.40
2022-09-02T04:04:47.668Z,1012.41
2022-09-02T04:05:47.653Z,1012.41
2022-09-02T04:06:47.631Z,1012.40
2022-09-02T04:07:47.589Z,1012.40
2022-09-02T04:08:47.599Z,1012.40
2022-09-02T04:09:47.633Z,1012.40
2022-09-02T04:10:47.583Z,1012.40
2022-09-02T04:11:47.561Z,1012.40
2022-09-02T04:12:47.505Z,1012.39
2022-09-02T04:13:47.495Z,1012.39
2022-09-02T04:14:47.576Z,1012.38
2022-09-02T04:15:47.560Z,1012.38
2022-09-02T04:16:47.472Z,1012.36
2022-09-02T04:17:47.481Z,1012.35
2022-09-02T04:18:47.538Z,1012.35
2022-09-02T04:19:47.552Z,1012.35
2022-09-02T04:20:47.403Z,1012.37
2022-09-02T04:21:47.413Z,1012.37
2022-09-02T04:22:47.401Z,1012.38
2022-09-02T04:23:47.364Z,1012.37
2022-09-02T04:24:47.340Z,1012.36
2022-09-02T04:25:47.409Z,1012.34
2022-09-02T04:26:47.325Z,1012.33
2022-09-02T04:27:47.314Z,1012.31
2022-09-02T04:28:47.324Z,1012.31
2022-09-02T04:29:47.352Z,1012.30
2022-09-02T04:30:47.340Z,1012.30
2022-09-02T04:31:47.336Z,1012.30
2022-09-02T04:32:47.247Z,1012.29
2022-09-02T04:33:47.280Z,1012.29
2022-09-02T04:34:47.284Z,1012.28
2022-09-02T04:35:47.239Z,1012.27
2022-09-02T04:36:47.232Z,1012.26
2022-09-02T04:37:47.202Z,1012.24
2022-09-02T04:38:47.891Z,1012.23
2022-09-02T04:39:47.204Z,1012.22
2022-09-02T04:40:47.327Z,1012.22
2022-09-02T04:41:47.193Z,1012.21
2022-09-02T04:42:47.164Z,1012.20
2022-09-02T04:43:47.207Z,1012.20
2022-09-02T04:44:47.191Z,1012.20
2022-09-02T04:45:47.267Z,1012.19
2022-09-02T04:46:47.190Z,1012.20
2022-09-02T04:47:47.115Z,1012.19
2022-09-02T04:48:47.072Z,1012.19
2022-09-02T04:49:47.133Z,1012.19
2022-09-02T04:50:47.089Z,1012.21
2022-09-02T04:51:47.116Z,1012.21
2022-09-02T04:52:47.052Z,1012.22
2022-09-02T04:53:47.057Z,1012.23
2022-09-02T04:54:47.082Z,1012.22
2022-09-02T04:55:47.054Z,1012.22
2022-09-02T04:56:47.081Z,1012.23
2022-09-02T04:57:47.001Z,1012.23
2022-09-02T04:58:46.986Z,1012.24
2022-09-02T04:59:46.980Z,1012.25
2022-09-02T05:00:47.042Z,1012.25
2022-09-02T05:01:47.033Z,1012.26
2022-09-02T05:02:47.001Z,1012.25
2022-09-02T05:03:46.968Z,1012.25
2022-09-02T05:04:46.993Z,1012.26
2022-09-02T05:05:47.022Z,1012.27
2022-09-02T05:06:47.016Z,1012.27
2022-09-02T05:07:46.981Z,1012.28
2022-09-02T05:08:46.913Z,1012.29
2022-09-02T05:09:46.934Z,1012.29
2022-09-02T05:10:46.936Z,1012.30
2022-09-02T05:11:46.910Z,1012.30
2022-09-02T05:12:46.865Z,1012.31
2022-09-02T05:13:46.864Z,1012.31
2022-09-02T05:14:46.847Z,1012.31
2022-09-02T05:15:46.876Z,1012.32
2022-09-02T05:16:46.825Z,1012.31
2022-09-02T05:17:46.866Z,1012.31
2022-09-02T05:18:46.882Z,1012.32
2022-09-02T05:19:46.842Z,1012.32
2022-09-02T05:20:46.855Z,1012.33
2022-09-02T05:21:46.806Z,1012.32
2022-09-02T05:22:46.752Z,1012.32
2022-09-02T05:23:46.757Z,1012.32
2022-09-02T05:24:46.775Z,1012.32
2022-09-02T05:25:46.981Z,1012.32
2022-09-02T05:26:46.761Z,1012.31
2022-09-02T05:27:46.786Z,1012.31
2022-09-02T05:28:46.750Z,1012.30
2022-09-02T05:29:46.730Z,1012.30
2022-09-02T05:30:46.749Z,1012.30
2022-09-02T05:31:46.776Z,1012.30
2022-09-02T05:32:46.735Z,1012.31
2022-09-02T05:33:46.628Z,1012.31
2022-09-02T05:34:46.741Z,1012.31
2022-09-02T05:35:47.081Z,1012.31
2022-09-02T05:36:46.656Z,1012.31
2022-09-02T05:37:46.794Z,1012.31
2022-09-02T05:38:46.687Z,1012.31
2022-09-02T05:39:46.737Z,1012.32
2022-09-02T05:40:46.682Z,1012.32
2022-09-02T05:41:46.651Z,1012.32
2022-09-02T05:42:48.692Z,1012.33
2022-09-02T05:43:46.575Z,1012.34
2022-09-02T05:44:46.596Z,1012.33
2022-09-02T05:45:46.650Z,1012.33
2022-09-02T05:46:48.969Z,1012.32
2022-09-02T05:47:46.660Z,1012.32
2022-09-02T05:48:46.748Z,1012.31
2022-09-02T05:49:46.498Z,1012.31
2022-09-02T05:50:46.619Z,1012.31
2022-09-02T05:51:46.540Z,1012.32
2022-09-02T05:52:46.511Z,1012.33
2022-09-02T05:53:46.557Z,1012.33
2022-09-02T05:54:46.537Z,1012.32
2022-09-02T05:55:46.475Z,1012.33
2022-09-02T05:56:46.503Z,1012.33
2022-09-02T05:57:46.627Z,1012.31
2022-09-02T05:58:46.485Z,1012.32
2022-09-02T05:59:46.530Z,1012.31
2022-09-02T06:00:46.442Z,1012.29
2022-09-02T06:01:46.507Z,1012.28
2022-09-02T06:02:46.519Z,1012.28
2022-09-02T06:03:46.457Z,1012.27
2022-09-02T06:04:46.558Z,1012.26
2022-09-02T06:05:46.362Z,1012.25
2022-09-02T06:06:46.375Z,1012.25
2022-09-02T06:07:46.425Z,1012.25
2022-09-02T06:08:46.794Z,1012.25
2022-09-02T06:09:46.275Z,1012.24
2022-09-02T06:10:46.331Z,1012.24
2022-09-02T06:11:46.286Z,1012.25
2022-09-02T06:12:46.495Z,1012.24
2022-09-02T06:13:46.268Z,1012.25
2022-09-02T06:14:46.213Z,1012.26
2022-09-02T06:15:46.504Z,1012.27
2022-09-02T06:16:46.746Z,1012.27
2022-09-02T06:17:46.417Z,1012.27
2022-09-02T06:18:49.044Z,1012.27
2022-09-02T06:19:46.173Z,1012.26
2022-09-02T06:20:46.600Z,1012.26
2022-09-02T06:21:46.254Z,1012.25
2022-09-02T06:22:46.242Z,1012.25
2022-09-02T06:23:46.219Z,1012.25
2022-09-02T06:24:46.198Z,1012.25
2022-09-02T06:25:46.109Z,1012.25
2022-09-02T06:26:46.244Z,1012.25
2022-09-02T06:27:46.293Z,1012.25
2022-09-02T06:28:46.159Z,1012.25
2022-09-02T06:29:46.245Z,1012.26
2022-09-02T06:30:46.240Z,1012.26
2022-09-02T06:31:46.144Z,1012.26
2022-09-02T06:32:50.576Z,1012.27
2022-09-02T06:33:46.154Z,1012.28
2022-09-02T06:34:46.146Z,1012.28
2022-09-02T06:35:46.131Z,1012.29
2022-09-02T06:36:46.132Z,1012.28
2022-09-02T06:37:46.026Z,1012.28
2022-09-02T06:38:46.225Z,1012.28
2022-09-02T06:39:46.018Z,1012.28
2022-09-02T06:40:46.088Z,1012.27
2022-09-02T06:41:46.049Z,1012.27
2022-09-02T06:42:45.987Z,1012.27
2022-09-02T06:43:45.965Z,1012.26
2022-09-02T06:44:45.925Z,1012.26
2022-09-02T06:45:46.103Z,1012.25
2022-09-02T06:46:45.921Z,1012.25
2022-09-02T06:47:45.968Z,1012.25
2022-09-02T06:48:46.216Z,1012.25
2022-09-02T06:49:45.897Z,1012.25
2022-09-02T06:50:45.950Z,1012.25
2022-09-02T06:51:45.909Z,1012.26
2022-09-02T06:52:46.105Z,1012.27
2022-09-02T06:53:46.129Z,1012.27
2022-09-02T06:54:45.934Z,1012.27
2022-09-02T06:55:45.852Z,1012.28
2022-09-02T06:56:49.293Z,1012.28
2022-09-02T06:57:45.780Z,1012.27
2022-09-02T06:58:45.876Z,1012.28
2022-09-02T06:59:45.840Z,1012.27
2022-09-02T07:00:45.874Z,1012.28
2022-09-02T07:01:45.929Z,1012.28
2022-09-02T07:02:45.969Z,1012.27
2022-09-02T07:03:45.870Z,1012.27
2022-09-02T07:04:45.776Z,1012.26
2022-09-02T07:05:45.737Z,1012.25
2022-09-02T07:06:45.752Z,1012.25
2022-09-02T07:07:50.831Z,1012.25
2022-09-02T07:08:45.806Z,1012.25
2022-09-02T07:09:45.639Z,1012.25
2022-09-02T07:10:45.720Z,1012.25
2022-09-02T07:11:45.635Z,1012.26
2022-09-02T07:12:45.625Z,1012.25
2022-09-02T07:13:46.078Z,1012.25
2022-09-02T07:14:45.845Z,1012.24
2022-09-02T07:15:45.752Z,1012.23
2022-09-02T07:16:45.783Z,1012.23
2022-09-02T07:17:45.625Z,1012.23
2022-09-02T07:18:45.604Z,1012.22
2022-09-02T07:19:45.587Z,1012.22
2022-09-02T07:20:45.585Z,1012.22
2022-09-02T07:21:45.531Z,1012.22
2022-09-02T07:22:45.641Z,1012.22
2022-09-02T07:23:45.572Z,1012.23
2022-09-02T07:24:47.934Z,1012.23
2022-09-02T07:25:47.374Z,1012.22
2022-09-02T07:26:45.550Z,1012.21
2022-09-02T07:27:50.273Z,1012.21
2022-09-02T07:28:45.490Z,1012.20
2022-09-02T07:29:45.456Z,1012.19
2022-09-02T07:30:45.506Z,1012.18
2022-09-02T07:31:45.680Z,1012.16
2022-09-02T07:32:45.451Z,1012.16
2022-09-02T07:33:45.480Z,1012.16
2022-09-02T07:34:45.465Z,1012.16
2022-09-02T07:35:45.421Z,1012.16
2022-09-02T07:36:45.445Z,1012.15
2022-09-02T07:37:45.419Z,1012.15
2022-09-02T07:38:45.435Z,1012.14
2022-09-02T07:39:45.426Z,1012.13
2022-09-02T07:40:45.446Z,1012.13
2022-09-02T07:41:45.421Z,1012.12
2022-09-02T07:42:45.450Z,1012.12
2022-09-02T07:43:48.439Z,1012.11
2022-09-02T07:44:45.435Z,1012.12
2022-09-02T08:03:57.925Z,1012.09
2022-09-02T08:04:58.274Z,1012.08
2022-09-02T08:05:58.120Z,1012.07
2022-09-02T08:06:57.822Z,1012.06
2022-09-02T08:07:58.027Z,1012.05
2022-09-02T08:09:00.146Z,1012.04
2022-09-02T08:09:57.918Z,1012.03
2022-09-02T08:10:57.689Z,1012.02
2022-09-02T08:11:57.655Z,1012.02
2022-09-02T08:12:57.616Z,1012.00
2022-09-02T08:52:59.556Z,1011.88
2022-09-02T08:57:22.397Z,1011.89
2022-09-02T09:04:14.805Z,1011.86
2022-09-02T09:09:31.917Z,1011.78
2022-09-02T09:11:10.966Z,1011.78
2022-09-02T09:12:57.074Z,1011.77
2022-09-02T09:13:58.618Z,1011.76
2022-09-02T09:14:57.944Z,1011.75
2022-09-02T09:15:57.985Z,1011.74
2022-09-02T09:16:58.310Z,1011.73
2022-09-02T09:17:57.786Z,1011.72
2022-09-02T09:18:58.344Z,1011.71
2022-09-02T09:19:58.104Z,1011.69
2022-09-02T09:21:05.838Z,1011.68
2022-09-02T09:21:57.706Z,1011.65
2022-09-02T09:22:57.787Z,1011.65
2022-09-02T09:23:58.252Z,1011.63
2022-09-02T09:24:57.886Z,1011.60
2022-09-02T09:25:58.154Z,1011.60
2022-09-02T09:26:59.473Z,1011.60
2022-09-02T09:27:57.722Z,1011.59
2022-09-02T09:28:58.164Z,1011.55
2022-09-02T09:29:57.768Z,1011.55
2022-09-02T09:30:57.643Z,1011.52
2022-09-02T09:31:59.948Z,1011.49
2022-09-02T09:34:18.041Z,1011.49
2022-09-02T09:36:42.262Z,1011.50
2022-09-02T09:37:44.514Z,1011.49
2022-09-02T09:38:42.894Z,1011.50
2022-09-02T09:39:42.457Z,1011.50
2022-09-02T09:40:42.316Z,1011.50
2022-09-02T09:41:42.296Z,1011.50
2022-09-02T09:42:44.615Z,1011.49
2022-09-02T09:43:42.284Z,1011.46
2022-09-02T09:44:42.479Z,1011.45
2022-09-02T09:45:42.541Z,1011.44
2022-09-02T09:46:42.016Z,1011.44
2022-09-02T09:47:42.012Z,1011.43
2022-09-02T09:48:42.002Z,1011.41
2022-09-02T09:49:41.997Z,1011.41
2022-09-02T09:50:41.970Z,1011.40
2022-09-02T09:51:50.136Z,1011.40
2022-09-02T09:52:41.949Z,1011.39
2022-09-02T09:53:41.964Z,1011.39
2022-09-02T09:54:41.989Z,1011.40
2022-09-02T09:55:41.926Z,1011.40
2022-09-02T09:56:41.913Z,1011.37
2022-09-02T09:57:44.676Z,1011.36
2022-09-02T09:58:41.897Z,1011.38
2022-09-02T09:59:41.876Z,1011.38
2022-09-02T10:00:41.897Z,1011.36
2022-09-02T10:01:41.903Z,1011.36
2022-09-02T10:02:41.893Z,1011.35
2022-09-02T10:03:41.875Z,1011.33
2022-09-02T10:04:43.925Z,1011.33
2022-09-02T10:05:41.814Z,1011.34
2022-09-02T10:06:41.814Z,1011.34
2022-09-02T10:07:41.795Z,1011.34
2022-09-02T10:08:41.813Z,1011.34
2022-09-02T10:09:41.780Z,1011.33
2022-09-02T10:10:41.779Z,1011.32
2022-09-02T10:11:41.740Z,1011.32
2022-09-02T10:12:41.753Z,1011.31
2022-09-02T10:13:41.736Z,1011.31
2022-09-02T10:14:41.717Z,1011.30
2022-09-02T10:15:41.735Z,1011.29
2022-09-02T10:16:41.798Z,1011.28
2022-09-02T10:17:41.693Z,1011.27
2022-09-02T10:18:41.692Z,1011.28
2022-09-02T10:19:41.667Z,1011.29
2022-09-02T10:20:53.157Z,1011.29
2022-09-02T10:21:44.969Z,1011.32
2022-09-02T10:22:58.439Z,1011.31
2022-09-02T10:23:41.628Z,1011.31
2022-09-02T10:24:41.632Z,1011.30
2022-09-02T10:25:41.603Z,1011.29
2022-09-02T10:26:41.591Z,1011.28
2022-09-02T10:27:41.577Z,1011.27
2022-09-02T10:28:41.572Z,1011.27
2022-09-02T10:29:41.565Z,1011.27
2022-09-02T10:30:41.563Z,1011.25
2022-09-02T10:31:41.600Z,1011.24
2022-09-02T10:32:41.535Z,1011.23
2022-09-02T10:33:41.521Z,1011.21
2022-09-02T10:34:41.531Z,1011.20
2022-09-02T10:35:41.491Z,1011.20
2022-09-02T10:36:41.487Z,1011.17
2022-09-02T10:37:41.470Z,1011.15
2022-09-02T10:38:41.497Z,1011.13
2022-09-02T10:39:41.493Z,1011.11
2022-09-02T10:40:41.565Z,1011.10
2022-09-02T10:41:41.503Z,1011.10
2022-09-02T10:42:41.486Z,1011.07
2022-09-02T10:43:41.422Z,1011.07
2022-09-02T10:44:41.463Z,1011.07
2022-09-02T10:45:41.516Z,1011.05
2022-09-02T10:46:41.456Z,1011.03
2022-09-02T10:47:41.394Z,1011.03
2022-09-02T10:48:41.407Z,1011.02
2022-09-02T10:49:41.391Z,1011.01
2022-09-02T10:50:41.397Z,1011.01
2022-09-02T10:51:41.349Z,1011.01
2022-09-02T10:52:41.336Z,1011.00
2022-09-02T10:53:41.334Z,1011.00
2022-09-02T10:54:41.373Z,1011.01
2022-09-02T10:55:41.367Z,1011.02
2022-09-02T10:56:41.378Z,1011.01
2022-09-02T10:57:41.273Z,1011.01
2022-09-02T10:58:41.268Z,1011.02
2022-09-02T10:59:41.252Z,1011.01
2022-09-02T11:00:41.303Z,1010.99
2022-09-02T11:01:41.798Z,1011.01
2022-09-02T11:02:41.268Z,1010.99
2022-09-02T11:03:41.760Z,1010.98
2022-09-02T11:04:41.310Z,1011.00
2022-09-02T11:05:41.188Z,1010.98
2022-09-02T11:07:01.334Z,1010.96
2022-09-02T11:07:41.163Z,1010.95
2022-09-02T11:08:41.171Z,1010.95
2022-09-02T11:09:41.167Z,1010.97
2022-09-02T11:10:41.152Z,1010.94
2022-09-02T11:11:41.243Z,1010.93
2022-09-02T11:12:41.135Z,1010.92
2022-09-02T11:13:41.139Z,1010.89
2022-09-02T11:14:41.151Z,1010.93
2022-09-02T11:15:41.104Z,1010.91
2022-09-02T11:16:41.128Z,1010.88
2022-09-02T11:17:41.072Z,1010.85
2022-09-02T11:18:41.063Z,1010.85
2022-09-02T11:19:41.048Z,1010.84
2022-09-02T11:20:41.046Z,1010.81
2022-09-02T11:21:41.026Z,1010.79
2022-09-02T11:22:41.025Z,1010.78
2022-09-02T11:23:41.002Z,1010.76
2022-09-02T11:24:45.854Z,1010.76
2022-09-02T11:25:41.058Z,1010.75
2022-09-02T11:26:41.009Z,1010.76
2022-09-02T11:27:43.090Z,1010.76
2022-09-02T11:28:40.983Z,1010.77
2022-09-02T11:29:40.931Z,1010.81
2022-09-02T11:30:41.123Z,1010.79
2022-09-02T11:31:40.949Z,1010.79
2022-09-02T11:32:40.969Z,1010.79
2022-09-02T11:33:40.954Z,1010.77
2022-09-02T11:34:41.035Z,1010.74
2022-09-02T11:35:41.401Z,1010.70
2022-09-02T11:36:40.993Z,1010.69
2022-09-02T11:37:41.161Z,1010.67
2022-09-02T11:38:40.938Z,1010.66
2022-09-02T11:40:06.667Z,1010.68
2022-09-02T11:40:41.172Z,1010.64
2022-09-02T11:41:40.902Z,1010.65
2022-09-02T11:42:40.848Z,1010.64
2022-09-02T11:43:40.822Z,1010.63
2022-09-02T11:44:40.854Z,1010.61
2022-09-02T11:45:40.817Z,1010.60
2022-09-02T11:46:40.848Z,1010.61
2022-09-02T11:47:45.445Z,1010.59
2022-09-02T11:48:40.815Z,1010.57
2022-09-02T11:49:40.749Z,1010.55
2022-09-02T11:50:40.751Z,1010.52
2022-09-02T11:51:40.759Z,1010.51
2022-09-02T11:52:40.726Z,1010.48
2022-09-02T11:53:40.762Z,1010.49
2022-09-02T11:54:40.724Z,1010.47
2022-09-02T11:55:40.692Z,1010.45
2022-09-02T11:56:40.684Z,1010.41
2022-09-02T11:57:40.694Z,1010.40
2022-09-02T11:58:40.688Z,1010.39
2022-09-02T11:59:40.654Z,1010.35
2022-09-02T12:00:40.661Z,1010.35
2022-09-02T12:01:43.943Z,1010.36
2022-09-02T12:02:40.672Z,1010.36
2022-09-02T12:04:06.503Z,1010.36
2022-09-02T12:04:59.193Z,1010.33
2022-09-02T12:05:40.738Z,1010.35
2022-09-02T12:06:40.730Z,1010.37
2022-09-02T12:07:40.605Z,1010.36
2022-09-02T12:08:40.654Z,1010.34
2022-09-02T12:09:40.889Z,1010.34
2022-09-02T12:10:40.711Z,1010.36
2022-09-02T12:11:40.524Z,1010.35
2022-09-02T12:12:40.529Z,1010.36
2022-09-02T12:13:40.556Z,1010.34
2022-09-02T12:14:40.511Z,1010.31
2022-09-02T12:15:40.469Z,1010.34
2022-09-02T12:16:40.475Z,1010.30
2022-09-02T12:17:40.663Z,1010.28
2022-09-02T12:18:40.485Z,1010.26
2022-09-02T12:19:40.476Z,1010.24
2022-09-02T12:20:40.410Z,1010.24
2022-09-02T12:21:40.425Z,1010.25
2022-09-02T12:22:40.514Z,1010.23
2022-09-02T12:23:40.459Z,1010.20
2022-09-02T12:24:40.442Z,1010.21
2022-09-02T12:25:40.361Z,1010.21
2022-09-02T12:26:40.422Z,1010.20
2022-09-02T12:27:40.385Z,1010.18
2022-09-02T12:28:40.328Z,1010.16
2022-09-02T12:29:40.351Z,1010.12
2022-09-02T12:30:40.405Z,1010.07
2022-09-02T12:31:40.384Z,1010.15
2022-09-02T12:32:40.356Z,1010.15
2022-09-02T12:33:40.285Z,1010.15
2022-09-02T12:34:40.282Z,1010.12
2022-09-02T12:35:40.518Z,1010.07
2022-09-02T12:36:40.278Z,1010.07
2022-09-02T12:37:40.334Z,1010.06
2022-09-02T12:38:40.333Z,1010.08
2022-09-02T12:39:40.272Z,1010.06
2022-09-02T12:40:40.307Z,1010.07
2022-09-02T12:41:40.269Z,1010.08
2022-09-02T12:42:40.206Z,1010.06
2022-09-02T12:43:40.211Z,1010.04
2022-09-02T12:44:40.214Z,1010.06
2022-09-02T12:45:40.542Z,1010.04
2022-09-02T12:46:40.357Z,1010.03
2022-09-02T12:47:40.221Z,1010.01
2022-09-02T12:48:40.332Z,1010.02
2022-09-02T12:49:40.175Z,1010.00
2022-09-02T12:50:40.377Z,1010.02
2022-09-02T12:51:40.122Z,1010.03
2022-09-02T12:52:40.361Z,1010.00
2022-09-02T12:53:40.173Z,1009.95
2022-09-02T12:54:40.147Z,1009.94
2022-09-02T12:55:40.095Z,1009.92
2022-09-02T12:56:40.059Z,1009.91
2022-09-02T12:57:40.065Z,1009.89
2022-09-02T12:58:40.227Z,1009.87
2022-09-02T12:59:40.089Z,1009.92
2022-09-02T13:00:40.102Z,1009.88
2022-09-02T13:01:40.180Z,1009.88
2022-09-02T13:02:39.996Z,1009.91
2022-09-02T13:03:40.379Z,1009.86
2022-09-02T13:04:40.015Z,1009.89
2022-09-02T13:05:40.092Z,1009.84
2022-09-02T13:06:40.108Z,1009.83
2022-09-02T13:07:40.033Z,1009.78
2022-09-02T13:08:39.947Z,1009.75
2022-09-02T13:09:39.930Z,1009.73
2022-09-02T13:10:39.907Z,1009.71
2022-09-02T13:11:39.908Z,1009.71
2022-09-02T13:12:39.888Z,1009.71
2022-09-02T13:13:39.923Z,1009.68
2022-09-02T13:14:39.997Z,1009.66
2022-09-02T13:15:39.913Z,1009.65
2022-09-02T13:16:39.954Z,1009.66
2022-09-02T13:17:39.959Z,1009.64
2022-09-02T13:18:39.833Z,1009.67
2022-09-02T13:19:39.864Z,1009.71
2022-09-02T13:20:39.896Z,1009.74
2022-09-02T13:21:39.793Z,1009.74
2022-09-02T13:22:39.818Z,1009.68